KVYS/VYS METAR and TAF weather

Enter ICAO airport designator
Station Type Date Time Source
KVYS METAR 2019/06/17 04:55 UTC NOAA

KVYS 170455Z AUTO 04007KT 10SM CLR 15/14 A2993 RMK AO2 T01500135


Station Type Date Time Source
KVYS Decoded METAR 2019/06/17 04:55 UTC NOAA

Peru, Illinois Valley Regional-Walter A Duncan Field Airport, IL, United States (KVYS) 41-21-07N 089-09-11W
Jun 17, 2019 - 12:55 AM EDT / 2019.06.17 0455 UTC
Wind: from the NE (040 degrees) at 8 MPH (7 KT):0
Visibility: 10 mile(s):0
Sky conditions: clear
Temperature: 59.0 F (15.0 C)
Dew Point: 56.3 F (13.5 C)
Relative Humidity: 90%
Pressure (altimeter): 29.93 in. Hg (1013 hPa)
ob: KVYS 170455Z AUTO 04007KT 10SM CLR 15/14 A2993 RMK AO2 T01500135
cycle: 5

Station Type Date Time Source
KVYS TAF UTC NOAA

Error!

Example: see airport list